Karina — WDE7823 — position and weather

sailwx.info

Track history (hours):
 
Tides and Currents Weather Stations Pressure Air Temp Water Temp Dewpoint Dewpoint Depression Visibility Wind Speed Wind Dir Waves Ship Positions

Karina

Owner: Karina, LLC, Cape May Court House, NJ. More information available from US FCC via Universal Licensing System and Coast Guard Vessel Documentation Center.

Last reported at 2017-Oct-25 05:27 UTC. Time now 2017-Nov-24 16:23 UTC.
Position N 38°58' W 074°53'.
Warning: this ship's position is 30 days out of date.

Length 21 m.

Type: Pleasure craft. MMSI: 367398120.

Date/timePositionNaut miles runAvg speedWind from/ knotsBaromVisibWave heightAir tempDewpointWater temp
2017-Oct-25 05:27N 38°58' W 074°53'0 0.0
2017-Oct-23 06:11N 38°58' W 074°53'0 0.0
2017-Oct-22 14:23N 38°58' W 074°53'0 0.0
2017-Oct-22 13:59N 38°58' W 074°53'0 0.0
2017-Oct-22 13:26N 38°58' W 074°53'0 0.0
2017-Oct-22 12:56N 38°58' W 074°53'0 0.0
2017-Oct-22 12:26N 38°58' W 074°53'0 0.1
2017-Oct-22 11:59N 38°57' W 074°53'3 5.9
2017-Oct-22 11:31N 38°57' W 074°49'9 8.4
2017-Oct-22 10:27N 39°01' W 074°39'5 8.4
2017-Oct-22 09:54N 39°02' W 074°33'5 8.2
2017-Oct-22 09:16N 39°04' W 074°27'2 8.2
2017-Oct-22 09:00N 39°05' W 074°25'4 8.2
2017-Oct-22 08:30N 39°07' W 074°20'4 8.2
2017-Oct-22 07:59N 39°09' W 074°15'4 8.2
2017-Oct-22 07:29N 39°10' W 074°10'4 8.1
2017-Oct-22 06:59N 39°12' W 074°05'4 8.1
2017-Oct-22 06:29N 39°14' W 074°00'4 8.1
2017-Oct-22 06:00N 39°15' W 073°56'4 8.1
2017-Oct-22 05:30N 39°17' W 073°51'4 8.3
2017-Oct-22 04:59N 39°19' W 073°46'4 8.2
2017-Oct-22 04:30N 39°20' W 073°41'4 8.0
2017-Oct-22 04:00N 39°22' W 073°37'4 8.0
2017-Oct-22 03:30N 39°24' W 073°32'4 7.9
2017-Oct-22 03:00N 39°25' W 073°28'4 7.9
2017-Oct-22 02:28N 39°27' W 073°23'4 7.9
2017-Oct-22 02:00N 39°29' W 073°18'4 7.7
2017-Oct-22 01:30N 39°30' W 073°14'  
2017-Oct-18 13:52N 38°58' W 074°53'0 0.0
2017-Oct-18 13:13N 38°58' W 074°53'0 0.2
2017-Oct-18 12:58N 38°57' W 074°53'0 0.0
2017-Oct-18 12:22N 38°58' W 074°53'0 0.0
2017-Oct-18 11:58N 38°58' W 074°53'0 0.0
2017-Oct-18 11:25N 38°58' W 074°53'0 0.0
2017-Oct-18 10:55N 38°58' W 074°53'0 0.0
2017-Oct-18 10:28N 38°58' W 074°53'0 0.0
2017-Oct-18 09:55N 38°57' W 074°53'0 0.0
2017-Oct-18 09:25N 38°57' W 074°53'0 0.0
2017-Oct-18 06:55N 38°57' W 074°53'  
Track history (hours):
 
Tides and Currents Weather Stations Pressure Air Temp Water Temp Dewpoint Dewpoint Depression Visibility Wind Speed Wind Dir Waves Ship Positions

Karina

Owner: Karina, LLC, Cape May Court House, NJ. More information available from US FCC via Universal Licensing System and Coast Guard Vessel Documentation Center.

Last reported at 2017-Oct-25 05:27 UTC. Time now 2017-Nov-24 16:23 UTC.
Position N 38°58' W 074°53'.
Warning: this ship's position is 30 days out of date.

Length 21 m.

Type: Pleasure craft. MMSI: 367398120.

Date/timePositionNaut miles runAvg speedWind from/ knotsBaromVisibWave heightAir tempDewpointWater temp
2017-Oct-25 05:27N 38°58' W 074°53'0 0.0
2017-Oct-23 06:11N 38°58' W 074°53'0 0.0
2017-Oct-22 14:23N 38°58' W 074°53'0 0.0
2017-Oct-22 13:59N 38°58' W 074°53'0 0.0
2017-Oct-22 13:26N 38°58' W 074°53'0 0.0
2017-Oct-22 12:56N 38°58' W 074°53'0 0.0
2017-Oct-22 12:26N 38°58' W 074°53'0 0.1
2017-Oct-22 11:59N 38°57' W 074°53'3 5.9
2017-Oct-22 11:31N 38°57' W 074°49'9 8.4
2017-Oct-22 10:27N 39°01' W 074°39'5 8.4
2017-Oct-22 09:54N 39°02' W 074°33'5 8.2
2017-Oct-22 09:16N 39°04' W 074°27'2 8.2
2017-Oct-22 09:00N 39°05' W 074°25'4 8.2
2017-Oct-22 08:30N 39°07' W 074°20'4 8.2
2017-Oct-22 07:59N 39°09' W 074°15'4 8.2
2017-Oct-22 07:29N 39°10' W 074°10'4 8.1
2017-Oct-22 06:59N 39°12' W 074°05'4 8.1
2017-Oct-22 06:29N 39°14' W 074°00'4 8.1
2017-Oct-22 06:00N 39°15' W 073°56'4 8.1
2017-Oct-22 05:30N 39°17' W 073°51'4 8.3
2017-Oct-22 04:59N 39°19' W 073°46'4 8.2
2017-Oct-22 04:30N 39°20' W 073°41'4 8.0
2017-Oct-22 04:00N 39°22' W 073°37'4 8.0
2017-Oct-22 03:30N 39°24' W 073°32'4 7.9
2017-Oct-22 03:00N 39°25' W 073°28'4 7.9
2017-Oct-22 02:28N 39°27' W 073°23'4 7.9
2017-Oct-22 02:00N 39°29' W 073°18'4 7.7
2017-Oct-22 01:30N 39°30' W 073°14'  
2017-Oct-18 13:52N 38°58' W 074°53'0 0.0
2017-Oct-18 13:13N 38°58' W 074°53'0 0.2
2017-Oct-18 12:58N 38°57' W 074°53'0 0.0
2017-Oct-18 12:22N 38°58' W 074°53'0 0.0
2017-Oct-18 11:58N 38°58' W 074°53'0 0.0
2017-Oct-18 11:25N 38°58' W 074°53'0 0.0
2017-Oct-18 10:55N 38°58' W 074°53'0 0.0
2017-Oct-18 10:28N 38°58' W 074°53'0 0.0
2017-Oct-18 09:55N 38°57' W 074°53'0 0.0
2017-Oct-18 09:25N 38°57' W 074°53'0 0.0
2017-Oct-18 06:55N 38°57' W 074°53'  

Dump ship's entire track history